createdAt,value
2023-05-03T00:00:23.210Z,8.7454
2023-05-03T00:01:24.128Z,8.7429
2023-05-03T00:02:26.208Z,8.7349
2023-05-03T00:03:26.264Z,8.7257
2023-05-03T00:04:26.840Z,8.7062
2023-05-03T00:05:28.163Z,8.6900
2023-05-03T00:06:30.310Z,8.6650
2023-05-03T00:07:29.896Z,8.6390
2023-05-03T00:08:30.516Z,8.6312
2023-05-03T00:09:31.407Z,8.6114
2023-05-03T00:10:31.668Z,8.6208
2023-05-03T00:11:33.364Z,8.6301
2023-05-03T00:12:32.697Z,8.6475
2023-05-03T00:13:34.478Z,8.6471
2023-05-03T00:14:34.760Z,8.6520
2023-05-03T00:15:34.878Z,8.6366
2023-05-03T00:16:36.352Z,8.6014
2023-05-03T00:17:38.352Z,8.5443
2023-05-03T00:21:40.295Z,8.5430
2023-05-03T00:22:41.124Z,8.5506
2023-05-03T00:24:41.321Z,8.5148
2023-05-03T00:25:41.924Z,8.5050
2023-05-03T00:26:42.309Z,8.4996
2023-05-03T00:27:42.506Z,8.4804
2023-05-03T00:28:44.174Z,8.4862
2023-05-03T00:29:44.994Z,8.4798
2023-05-03T00:30:46.278Z,8.4816
2023-05-03T00:35:53.048Z,8.4564
2023-05-03T00:36:53.488Z,8.4519
2023-05-03T00:37:53.186Z,8.4360
2023-05-03T00:38:54.359Z,8.3659
2023-05-03T00:40:54.765Z,8.3386
2023-05-03T00:41:55.624Z,8.3426
2023-05-03T00:42:55.801Z,8.3364
2023-05-03T00:43:56.517Z,8.3363
2023-05-03T00:44:57.704Z,8.3416
2023-05-03T00:46:12.443Z,8.3371
2023-05-03T00:47:01.629Z,8.3256
2023-05-03T00:48:03.262Z,8.3261
2023-05-03T00:49:03.545Z,8.3275
2023-05-03T00:50:04.828Z,8.3151
2023-05-03T01:00:22.387Z,8.2339
2023-05-03T01:01:23.963Z,8.2127
2023-05-03T01:02:25.186Z,8.2175
2023-05-03T01:03:26.180Z,8.2225
2023-05-03T01:11:39.295Z,8.1711
2023-05-03T01:12:39.749Z,8.1517
2023-05-03T01:13:40.915Z,8.1416
2023-05-03T01:14:41.360Z,8.1014
2023-05-03T01:15:42.558Z,8.1085
2023-05-03T01:16:44.885Z,8.1170
2023-05-03T01:17:46.633Z,8.1046
2023-05-03T01:20:48.564Z,8.0567
2023-05-03T01:21:48.779Z,8.0508
2023-05-03T01:22:49.780Z,8.0378
2023-05-03T01:23:51.349Z,8.0368
2023-05-03T01:24:52.285Z,8.0302
2023-05-03T01:25:52.886Z,8.0315
2023-05-03T01:26:53.843Z,8.0315
2023-05-03T01:27:54.949Z,8.0303
2023-05-03T01:28:55.745Z,8.0385
2023-05-03T01:29:55.904Z,8.0480
2023-05-03T01:30:57.165Z,8.0247
2023-05-03T01:31:58.498Z,8.0308
2023-05-03T01:33:58.877Z,8.0127
2023-05-03T01:34:59.670Z,8.0006
2023-05-03T01:36:00.632Z,7.9913
2023-05-03T01:37:01.064Z,7.9905
2023-05-03T01:38:01.760Z,7.9874
2023-05-03T01:39:02.452Z,7.9674
2023-05-03T01:40:03.079Z,7.9604
2023-05-03T01:41:03.692Z,7.9580
2023-05-03T01:42:04.876Z,7.9565
2023-05-03T01:43:05.443Z,7.9554
2023-05-03T01:44:05.969Z,7.9450
2023-05-03T01:45:07.579Z,7.9400
2023-05-03T01:46:07.799Z,7.9370
2023-05-03T01:47:08.906Z,7.9518
2023-05-03T01:48:09.020Z,7.9559
2023-05-03T01:49:09.661Z,7.9460
2023-05-03T01:50:10.380Z,7.8980
2023-05-03T01:51:11.144Z,7.8978
2023-05-03T01:52:11.576Z,7.8964
2023-05-03T01:53:11.930Z,7.8883
2023-05-03T01:55:13.475Z,7.8939
2023-05-03T01:56:14.230Z,7.8794
2023-05-03T01:57:14.937Z,7.8676
2023-05-03T01:58:15.393Z,7.8594
2023-05-03T01:59:16.517Z,7.8554
2023-05-03T02:00:17.638Z,7.8538
2023-05-03T02:01:18.995Z,7.8490
2023-05-03T02:04:20.265Z,7.8302
2023-05-03T02:05:21.149Z,7.8265
2023-05-03T02:06:21.700Z,7.8347
2023-05-03T02:07:22.042Z,7.8359
2023-05-03T02:08:22.662Z,7.8128
2023-05-03T02:09:23.138Z,7.8001
2023-05-03T02:10:23.700Z,7.7873
2023-05-03T02:11:24.234Z,7.7871
2023-05-03T02:12:25.726Z,7.7924
2023-05-03T02:13:25.551Z,7.8107
2023-05-03T02:14:28.008Z,7.7748
2023-05-03T02:15:28.963Z,7.7925
2023-05-03T02:16:30.067Z,7.8199
2023-05-03T02:17:30.569Z,7.8245
2023-05-03T02:18:31.168Z,7.8240
2023-05-03T02:19:31.685Z,7.8256
2023-05-03T02:20:32.016Z,7.8125
2023-05-03T02:21:32.701Z,7.7976
2023-05-03T02:22:32.846Z,7.7914
2023-05-03T02:23:33.630Z,7.7669
2023-05-03T02:24:34.329Z,7.7676
2023-05-03T02:25:34.761Z,7.7663
2023-05-03T02:26:35.178Z,7.7758
2023-05-03T02:27:36.132Z,7.7866
2023-05-03T02:28:36.999Z,7.7803
2023-05-03T02:29:38.882Z,7.7875
2023-05-03T02:30:41.037Z,7.7675
2023-05-03T02:31:42.064Z,7.7502
2023-05-03T02:32:43.108Z,7.7386
2023-05-03T02:33:44.094Z,7.7367
2023-05-03T02:34:44.464Z,7.7278
2023-05-03T02:35:45.346Z,7.6981
2023-05-03T02:36:46.207Z,7.6771
2023-05-03T02:37:46.865Z,7.6660
2023-05-03T02:38:46.888Z,7.6533
2023-05-03T02:39:47.573Z,7.6541
2023-05-03T02:40:48.148Z,7.6512
2023-05-03T02:41:48.671Z,7.6613
2023-05-03T02:42:52.580Z,7.6659
2023-05-03T02:43:51.588Z,7.6491
2023-05-03T02:44:51.485Z,7.6289
2023-05-03T02:45:52.318Z,7.6244
2023-05-03T02:46:53.009Z,7.6190
2023-05-03T02:47:53.407Z,7.5935
2023-05-03T02:48:54.124Z,7.5342
2023-05-03T02:49:54.605Z,7.5333
2023-05-03T02:50:55.427Z,7.5346
2023-05-03T02:51:56.090Z,7.5481
2023-05-03T02:52:56.930Z,7.5384
2023-05-03T02:53:58.162Z,7.5353
2023-05-03T02:54:58.635Z,7.5444
2023-05-03T02:55:59.676Z,7.5497
2023-05-03T02:57:00.352Z,7.5579
2023-05-03T02:58:00.438Z,7.5381
2023-05-03T02:59:01.114Z,7.5376
2023-05-03T03:01:01.287Z,7.5103
2023-05-03T03:02:02.548Z,7.5368
2023-05-03T03:03:02.565Z,7.5618
2023-05-03T03:04:02.780Z,7.5689
2023-05-03T03:05:03.830Z,7.5695
2023-05-03T03:06:04.730Z,7.5833
2023-05-03T03:07:05.482Z,7.5597
2023-05-03T03:08:06.472Z,7.5411
2023-05-03T03:09:07.161Z,7.5317
2023-05-03T03:10:07.697Z,7.5284
2023-05-03T03:11:08.188Z,7.5298
2023-05-03T03:12:09.007Z,7.5357
2023-05-03T03:13:09.696Z,7.5232
2023-05-03T03:14:10.298Z,7.5366
2023-05-03T03:15:10.823Z,7.5460
2023-05-03T03:16:11.872Z,7.5618
2023-05-03T03:17:12.891Z,7.5883
2023-05-03T03:18:13.511Z,7.6094
2023-05-03T03:19:14.573Z,7.6014
2023-05-03T03:20:15.654Z,7.6060
2023-05-03T03:21:16.215Z,7.6105
2023-05-03T03:22:17.272Z,7.6108
2023-05-03T03:23:17.756Z,7.5965
2023-05-03T03:24:18.460Z,7.5826
2023-05-03T03:25:18.829Z,7.5546
2023-05-03T03:26:19.356Z,7.5381
2023-05-03T03:27:20.029Z,7.5158
2023-05-03T03:28:21.050Z,7.4947
2023-05-03T03:29:22.342Z,7.4359
2023-05-03T03:30:23.333Z,7.4520
2023-05-03T03:31:23.684Z,7.4724
2023-05-03T03:32:24.818Z,7.4913
2023-05-03T03:34:27.828Z,7.5391
2023-05-03T03:35:28.662Z,7.5479
2023-05-03T03:36:29.626Z,7.5412
2023-05-03T03:37:30.060Z,7.5213
2023-05-03T03:38:31.047Z,7.5205
2023-05-03T03:39:31.263Z,7.4990
2023-05-03T03:40:31.407Z,7.4578
2023-05-03T03:41:31.317Z,7.4245
2023-05-03T03:42:32.046Z,7.4039
2023-05-03T03:43:32.571Z,7.3818
2023-05-03T03:44:33.740Z,7.3624
2023-05-03T03:45:34.568Z,7.3221
2023-05-03T03:46:35.239Z,7.3132
2023-05-03T03:47:36.487Z,7.3034
2023-05-03T03:48:37.248Z,7.2781
2023-05-03T03:49:38.043Z,7.2730
2023-05-03T03:50:38.221Z,7.2659
2023-05-03T03:51:38.702Z,7.2393
2023-05-03T03:52:39.348Z,7.2204
2023-05-03T03:53:40.532Z,7.1870
2023-05-03T03:54:41.608Z,7.1624
2023-05-03T03:55:41.717Z,7.1644
2023-05-03T03:56:42.908Z,7.1240
2023-05-03T03:57:43.832Z,7.0939
2023-05-03T03:58:44.469Z,7.0615
2023-05-03T03:59:45.180Z,7.0651
2023-05-03T04:00:45.376Z,7.0654
2023-05-03T04:01:46.485Z,7.0485
2023-05-03T04:02:48.496Z,7.0439
2023-05-03T04:03:49.569Z,7.0509
2023-05-03T04:04:50.696Z,7.0570
2023-05-03T04:05:52.797Z,7.0457
2023-05-03T04:06:53.920Z,7.0351
2023-05-03T04:10:54.242Z,7.0215
2023-05-03T04:13:55.704Z,7.0292
2023-05-03T04:17:56.927Z,7.0551
2023-05-03T04:18:57.939Z,7.0640
2023-05-03T04:19:58.252Z,7.0487
2023-05-03T04:20:59.228Z,7.0351
2023-05-03T04:21:59.996Z,7.0344
2023-05-03T04:23:01.751Z,7.0506
2023-05-03T04:24:03.009Z,7.0752
2023-05-03T04:25:03.808Z,7.0758
2023-05-03T04:26:05.101Z,7.0240
2023-05-03T04:27:04.517Z,7.0303
2023-05-03T04:28:05.467Z,6.9862
2023-05-03T04:31:06.838Z,6.9958
2023-05-03T04:32:07.122Z,6.9817
2023-05-03T04:39:18.226Z,7.0127
2023-05-03T04:40:19.334Z,7.0043
2023-05-03T04:49:30.287Z,7.0577
2023-05-03T04:50:30.390Z,7.0590
2023-05-03T04:51:30.759Z,7.1025
2023-05-03T04:52:32.118Z,7.1187
2023-05-03T04:53:34.330Z,7.1093
2023-05-03T04:54:37.046Z,7.1211
2023-05-03T04:55:37.877Z,7.1071
2023-05-03T04:56:38.220Z,7.1262
2023-05-03T04:57:38.476Z,7.1699
2023-05-03T05:02:44.446Z,7.3239
2023-05-03T05:03:45.914Z,7.3451
2023-05-03T05:04:46.791Z,7.3963
2023-05-03T05:08:51.846Z,7.4998
2023-05-03T05:09:52.351Z,7.4998
2023-05-03T05:12:54.542Z,7.5882
2023-05-03T05:13:54.669Z,7.6098
2023-05-03T05:14:56.094Z,7.6120
2023-05-03T05:15:55.946Z,7.6258
2023-05-03T05:16:57.364Z,7.6509
2023-05-03T05:17:57.680Z,7.6688
2023-05-03T05:18:57.780Z,7.6750
2023-05-03T05:19:58.394Z,7.6906
2023-05-03T05:20:59.617Z,7.7020
2023-05-03T05:22:00.588Z,7.6817
2023-05-03T05:23:01.285Z,7.6973
2023-05-03T05:24:02.376Z,7.7125
2023-05-03T05:25:02.999Z,7.7182
2023-05-03T05:26:03.524Z,7.7325
2023-05-03T05:27:04.651Z,7.7534
2023-05-03T05:28:05.393Z,7.7614
2023-05-03T05:29:05.438Z,7.7691
2023-05-03T05:30:06.278Z,7.8104
2023-05-03T05:31:07.261Z,7.8481
2023-05-03T05:32:08.468Z,7.8303
2023-05-03T05:33:09.486Z,7.8738
2023-05-03T05:34:09.954Z,7.9084
2023-05-03T05:35:10.923Z,7.8822
2023-05-03T05:36:11.090Z,7.9199
2023-05-03T05:37:11.952Z,7.9095
2023-05-03T05:38:13.268Z,7.9211
2023-05-03T05:39:14.093Z,7.9085
2023-05-03T05:40:14.745Z,7.9554
2023-05-03T05:41:15.647Z,8.0082
2023-05-03T05:42:16.820Z,8.0516
2023-05-03T05:43:16.918Z,8.0389
2023-05-03T05:45:18.480Z,8.0716
2023-05-03T05:46:19.047Z,8.1032
2023-05-03T05:47:19.098Z,8.1055
2023-05-03T05:48:19.535Z,8.0910
2023-05-03T05:49:19.949Z,8.1063
2023-05-03T05:50:21.125Z,8.1167
2023-05-03T05:51:21.979Z,8.0792
2023-05-03T05:54:23.415Z,8.1986
2023-05-03T05:55:24.395Z,8.2080
2023-05-03T05:58:26.951Z,8.2146
2023-05-03T05:59:27.516Z,8.2503
2023-05-03T06:00:27.690Z,8.2364
2023-05-03T06:01:28.547Z,8.3310
2023-05-03T06:02:30.035Z,8.3566
2023-05-03T06:03:30.514Z,8.3517
2023-05-03T06:04:31.664Z,8.2497
2023-05-03T06:05:32.115Z,8.3169
2023-05-03T06:06:33.037Z,8.3124
2023-05-03T06:07:34.088Z,8.3630
2023-05-03T06:08:34.380Z,8.3854
2023-05-03T06:09:34.923Z,8.3629
2023-05-03T06:10:36.417Z,8.3559
2023-05-03T06:11:36.862Z,8.4065
2023-05-03T06:12:37.590Z,8.4163
2023-05-03T06:13:38.696Z,8.3970
2023-05-03T06:14:42.230Z,8.3361
2023-05-03T06:15:40.459Z,8.3180
2023-05-03T06:16:41.577Z,8.3836
2023-05-03T06:19:45.060Z,8.5063
2023-05-03T06:20:44.623Z,8.5570
2023-05-03T06:21:43.879Z,8.5543
2023-05-03T06:22:45.155Z,8.4988
2023-05-03T06:23:46.268Z,8.5396
2023-05-03T06:24:47.067Z,8.5205
2023-05-03T06:25:47.913Z,8.5857
2023-05-03T06:26:48.453Z,8.6061
2023-05-03T06:27:49.165Z,8.5453
2023-05-03T06:28:49.362Z,8.4499
2023-05-03T06:29:50.045Z,8.4619
2023-05-03T06:30:51.034Z,8.4980
2023-05-03T06:31:51.542Z,8.5212
2023-05-03T06:32:52.450Z,8.4710
2023-05-03T06:33:53.388Z,8.5025
2023-05-03T06:34:54.161Z,8.5589
2023-05-03T06:35:54.856Z,8.5829
2023-05-03T06:36:55.801Z,8.5120
2023-05-03T06:37:56.557Z,8.5718
2023-05-03T06:38:57.616Z,8.5673
2023-05-03T06:39:58.423Z,8.5615
2023-05-03T06:40:59.191Z,8.6331
2023-05-03T06:42:00.150Z,8.6175
2023-05-03T06:43:00.720Z,8.6515
2023-05-03T06:44:01.587Z,8.6607
2023-05-03T06:45:01.732Z,8.6296
2023-05-03T06:46:01.815Z,8.6618
2023-05-03T06:47:03.053Z,8.6841
2023-05-03T06:48:03.745Z,8.6970
2023-05-03T06:49:03.944Z,8.7349
2023-05-03T06:50:04.996Z,8.6893
2023-05-03T06:51:05.138Z,8.7421
2023-05-03T06:52:05.821Z,8.7841
2023-05-03T06:53:06.673Z,8.8084
2023-05-03T06:54:07.455Z,8.8048
2023-05-03T06:55:07.994Z,8.8599
2023-05-03T06:56:08.814Z,8.8399
2023-05-03T06:57:09.574Z,8.8383
2023-05-03T06:58:10.122Z,8.8764
2023-05-03T06:59:10.873Z,8.9199
2023-05-03T07:00:12.066Z,8.9815
2023-05-03T07:01:12.933Z,8.9791
2023-05-03T07:02:13.424Z,8.9820
2023-05-03T07:03:13.488Z,8.9222
2023-05-03T07:04:13.649Z,8.9822
2023-05-03T07:05:13.662Z,9.0310
2023-05-03T07:06:13.995Z,9.0885
2023-05-03T07:07:14.496Z,9.0773
2023-05-03T07:08:15.465Z,9.1458
2023-05-03T07:09:16.530Z,9.1660
2023-05-03T07:10:17.182Z,9.1392
2023-05-03T07:11:17.204Z,9.1326
2023-05-03T07:12:17.970Z,9.1302
2023-05-03T07:13:18.505Z,9.1189
2023-05-03T07:14:19.305Z,9.1549
2023-05-03T07:15:19.841Z,9.1383
2023-05-03T07:16:20.651Z,9.1872
2023-05-03T07:17:21.740Z,9.1274
2023-05-03T07:18:22.382Z,9.1917
2023-05-03T07:19:23.280Z,9.2140
2023-05-03T07:20:24.605Z,9.2531
2023-05-03T07:21:25.777Z,9.2845
2023-05-03T07:22:26.539Z,9.2533
2023-05-03T07:23:27.100Z,9.2501
2023-05-03T07:24:27.711Z,9.2493
2023-05-03T07:25:28.937Z,9.2732
2023-05-03T07:26:29.421Z,9.2344
2023-05-03T07:27:30.580Z,9.2664
2023-05-03T07:28:31.313Z,9.2865
2023-05-03T07:29:31.942Z,9.2700
2023-05-03T07:30:32.594Z,9.3029
2023-05-03T07:31:33.093Z,9.3001
2023-05-03T07:32:34.186Z,9.3511
2023-05-03T07:33:34.662Z,9.4407
2023-05-03T07:34:35.677Z,9.4857
2023-05-03T07:35:36.368Z,9.5611
2023-05-03T07:36:37.120Z,9.5281
2023-05-03T07:37:37.669Z,9.5983
2023-05-03T07:38:38.344Z,9.6626
2023-05-03T07:39:39.056Z,9.6238
2023-05-03T07:40:40.219Z,9.7083
2023-05-03T07:41:40.915Z,9.6861
2023-05-03T07:42:41.468Z,9.7120
2023-05-03T07:43:42.340Z,9.7812
2023-05-03T07:44:43.261Z,9.8417
2023-05-03T07:45:44.030Z,9.8195
2023-05-03T07:46:45.164Z,9.8370
2023-05-03T07:47:45.930Z,9.8766
2023-05-03T07:48:46.973Z,9.9685
2023-05-03T07:49:47.560Z,10.0526
2023-05-03T07:50:48.332Z,10.0559
2023-05-03T07:51:48.978Z,9.9275
2023-05-03T07:52:49.759Z,9.9947
2023-05-03T07:53:50.274Z,10.0333
2023-05-03T07:54:51.303Z,10.0661
2023-05-03T07:55:51.968Z,10.1303
2023-05-03T07:56:55.035Z,10.1895
2023-05-03T07:57:54.101Z,10.1769
2023-05-03T07:59:04.691Z,10.1432
2023-05-03T08:00:54.900Z,10.3141
2023-05-03T08:01:55.792Z,10.2920
2023-05-03T08:02:56.522Z,10.3091
2023-05-03T08:03:57.044Z,10.2821
2023-05-03T08:04:57.488Z,10.2331
2023-05-03T08:05:57.912Z,10.2760
2023-05-03T08:06:58.925Z,10.3595
2023-05-03T08:07:59.634Z,10.4304
2023-05-03T08:09:00.246Z,10.4567
2023-05-03T08:10:01.300Z,10.4760
2023-05-03T08:11:01.768Z,10.4239
2023-05-03T08:12:02.663Z,10.5177
2023-05-03T08:13:03.430Z,10.4484
2023-05-03T08:14:04.256Z,10.5440
2023-05-03T08:15:05.163Z,10.5917
2023-05-03T08:16:05.807Z,10.6714
2023-05-03T08:17:06.694Z,10.6359
2023-05-03T08:18:07.423Z,10.6406
2023-05-03T08:19:07.410Z,10.6847
2023-05-03T08:20:08.218Z,10.7183
2023-05-03T08:21:08.905Z,10.7752
2023-05-03T08:22:09.418Z,10.8295
2023-05-03T08:23:10.860Z,10.8200
2023-05-03T08:25:10.841Z,10.9468
2023-05-03T08:26:11.691Z,10.8855
2023-05-03T08:27:12.614Z,10.9557
2023-05-03T08:28:13.257Z,10.9426
2023-05-03T08:29:13.975Z,10.9780
2023-05-03T08:30:15.443Z,10.8958
2023-05-03T08:31:16.317Z,11.0597
2023-05-03T08:32:17.427Z,11.1443
2023-05-03T08:33:18.205Z,11.0704
2023-05-03T08:34:18.758Z,10.9836
2023-05-03T08:35:19.590Z,11.1206
2023-05-03T08:36:20.366Z,11.2021
2023-05-03T08:37:21.392Z,11.2140
2023-05-03T08:38:22.227Z,11.1676
2023-05-03T08:39:22.892Z,11.1228
2023-05-03T08:40:23.609Z,11.0585
2023-05-03T08:41:24.376Z,11.1343
2023-05-03T08:42:25.808Z,11.1420
2023-05-03T08:43:25.506Z,11.1519
2023-05-03T08:44:26.026Z,11.2323
2023-05-03T08:45:26.839Z,11.2654
2023-05-03T08:46:28.105Z,11.3665
2023-05-03T08:47:28.220Z,11.2482
2023-05-03T08:48:30.622Z,11.3058
2023-05-03T08:49:29.531Z,11.3207
2023-05-03T08:50:30.168Z,11.3477
2023-05-03T08:51:30.952Z,11.3466
2023-05-03T08:52:31.483Z,11.3268
2023-05-03T08:53:32.120Z,11.1809
2023-05-03T08:54:32.931Z,11.2093
2023-05-03T08:55:33.361Z,11.2177
2023-05-03T08:56:34.243Z,11.2945
2023-05-03T08:57:34.885Z,11.3153
2023-05-03T08:58:34.976Z,11.1929
2023-05-03T08:59:35.683Z,11.1516
2023-05-03T09:00:37.135Z,11.0274
2023-05-03T09:01:37.810Z,10.9684
2023-05-03T09:02:38.738Z,10.9580
2023-05-03T09:03:40.401Z,10.9679
2023-05-03T09:04:40.562Z,10.9158
2023-05-03T09:05:41.364Z,10.8521
2023-05-03T09:06:42.452Z,10.9434
2023-05-03T09:07:42.895Z,10.8521
2023-05-03T09:08:43.588Z,10.8414
2023-05-03T09:09:46.865Z,10.8864
2023-05-03T09:10:44.510Z,10.8973
2023-05-03T09:11:45.351Z,11.0075
2023-05-03T09:12:45.997Z,11.0737
2023-05-03T09:13:46.712Z,11.1628
2023-05-03T09:14:47.478Z,11.2251
2023-05-03T09:15:47.917Z,11.3305
2023-05-03T09:16:48.313Z,11.2789
2023-05-03T09:17:48.915Z,11.2905
2023-05-03T09:18:49.967Z,11.3556
2023-05-03T09:19:50.728Z,11.3586
2023-05-03T09:20:52.613Z,11.3365
2023-05-03T09:21:52.645Z,11.3858
2023-05-03T09:22:53.238Z,11.3626
2023-05-03T09:23:53.942Z,11.3581
2023-05-03T09:24:54.754Z,11.3327
2023-05-03T09:25:55.274Z,11.3422
2023-05-03T09:26:56.029Z,11.3220
2023-05-03T09:27:56.860Z,11.2985
2023-05-03T09:28:57.518Z,11.2399
2023-05-03T09:29:58.268Z,11.2314
2023-05-03T09:30:59.357Z,11.2063
2023-05-03T09:31:59.808Z,11.2022
2023-05-03T09:33:00.935Z,11.2307
2023-05-03T09:34:01.459Z,11.2962
2023-05-03T09:35:02.359Z,11.2869
2023-05-03T09:36:03.309Z,11.3527
2023-05-03T09:37:03.603Z,11.3993
2023-05-03T09:38:04.262Z,11.4672
2023-05-03T09:39:04.971Z,11.5612
2023-05-03T09:40:05.573Z,11.5475
2023-05-03T09:41:06.404Z,11.5421
2023-05-03T09:42:06.936Z,11.5663
2023-05-03T09:43:07.499Z,11.6442
2023-05-03T09:44:08.292Z,11.6396
2023-05-03T09:45:08.783Z,11.6968
2023-05-03T09:46:09.852Z,11.7018
2023-05-03T09:47:10.855Z,11.7357
2023-05-03T09:48:12.070Z,11.7203
2023-05-03T09:49:12.826Z,11.6829
2023-05-03T09:50:13.375Z,11.7118
2023-05-03T09:51:14.105Z,11.7056
2023-05-03T09:52:14.798Z,11.7049
2023-05-03T09:53:15.283Z,11.7507
2023-05-03T09:54:16.153Z,11.7982
2023-05-03T09:55:16.891Z,11.9160
2023-05-03T09:56:17.460Z,11.9243
2023-05-03T09:57:18.214Z,11.9222
2023-05-03T09:58:18.685Z,11.9468
2023-05-03T09:59:19.541Z,11.9779
2023-05-03T10:00:20.264Z,12.0707
2023-05-03T10:01:20.915Z,12.1555
2023-05-03T10:02:20.901Z,12.2059
2023-05-03T10:03:21.901Z,12.1929
2023-05-03T10:04:22.886Z,12.1913
2023-05-03T10:05:23.870Z,12.2089
2023-05-03T10:06:24.797Z,12.2452
2023-05-03T10:07:25.313Z,12.3450
2023-05-03T10:08:25.994Z,12.4418
2023-05-03T10:09:26.499Z,12.5286
2023-05-03T10:10:27.144Z,12.6776
2023-05-03T10:11:28.017Z,12.7538
2023-05-03T10:12:28.585Z,12.9635
2023-05-03T10:13:29.224Z,13.0018
2023-05-03T10:14:30.049Z,12.9571
2023-05-03T10:15:30.878Z,12.8903
2023-05-03T10:16:31.812Z,12.8278
2023-05-03T10:17:46.365Z,12.8815
2023-05-03T10:18:32.474Z,12.9367
2023-05-03T10:19:33.613Z,13.0127
2023-05-03T10:20:34.317Z,13.0477
2023-05-03T10:21:35.024Z,13.2158
2023-05-03T10:22:35.931Z,13.2494
2023-05-03T10:23:36.776Z,13.3114
2023-05-03T10:24:37.480Z,13.4150
2023-05-03T10:25:37.999Z,13.5054
2023-05-03T10:26:39.142Z,13.5608
2023-05-03T10:27:39.978Z,13.5993
2023-05-03T10:28:40.417Z,13.4836
2023-05-03T10:29:41.184Z,13.4591
2023-05-03T10:30:41.668Z,13.4145
2023-05-03T10:31:42.617Z,13.3864
2023-05-03T10:32:42.693Z,13.3787
2023-05-03T10:33:43.468Z,13.4932
2023-05-03T10:34:44.599Z,13.5740
2023-05-03T10:35:44.253Z,13.6736
2023-05-03T10:36:49.834Z,13.8146
